Claude, Oregon
Current Conditions -  °F | °C
As of 1:53 AM on Thursday 18 Dec 2014 (Local Time) from KONO Reporting Station
Overcast Overcast  
Wind Chill: 31°   Ceiling: 7500
Heat Index: 36°   Visibility: 7mi
Dew Point: 33°   Wind: 6mph
Humidity: 89%   Direction: 250°WSW
Pressure: 30.06"   Gusts: NA
Location:  44.0817°N, 117.014°W
Report Text: KONO 180853Z AUTO 25005KT 7SM BKN075 OVC090 02/01 A3006 RMK AO2 SLP195 T00220006 51002
Loading
Personal Weather Stations






























Interactive Weather Map New forecast layout! Learn more

10-Day Weather Forecast

Advertisements
Track Severe Weather on mobile